Airfield :
LOGIN :

Register | Disclaimer

   EN    FR    IT 

 










Legend :    VFR   Marginal VFR   IFR   Intensive IFR   Very Intensive IFR
Visi :
Ceiling :
>= 8 km
>= 3000ft
5 to 8 km
1000 to 3000 ft
1500m to 5 km
500 to 1000 ft
800 to 1500m
200 to 500 ft
< 800m
< 200 ft
Symbols :   Thunderstorms  Fog  Heavy snow  Heavy precipitations  Wind > 20 kt
SIGMETs :     Misc.  Thunderstorms  Icing  Turbulence  Mountain Waves  Volcanic Ashes







- Airport Elevation : 1989 ft
- IATA code : KLV


LKKV - Karlovy Vary

CURRENT METAR :
  • 180517Z 11002KT 0300 R29/0375N FG SCT003 03/03 Q1020 RMK REG QNH 1016

EXPIRED METARs :
  • 180500Z 31002KT 9999 R29/0500N MIFG BCFG NSC 06/06 Q1020
  • 180400Z 11002KT 3500 R29/0450U BR BCFG SCT005 04/04 Q1019
  • 180300Z 00000KT 3900 BR NSC 06/06 Q1019

TAF TAF LKKV
Valid from the 18 at 06:00 until the 19 at 12:00 UTC


180500Z 1806/1912 VRB02KT 3000 BR SCT002
TEMPO 1806/1808 1200 MIFG SCT001
PROB30
TEMPO 1806/1807 0500 FG BKN001
BECMG 1808/1810 35006KT CAVOK
BECMG 1818/1820 2000 MIFG SCT002
TEMPO 1822/1907 1200 BR BKN002
PROB30
TEMPO 1900/1907 0500 FG VV001
BECMG 1907/1909 CAVOK
No reported NOTAMs for that airfield.



MET'MAP, your aeronautical weather chart ! - Copyright ORBIFLY December 2007 - Disclaimer

ORBIFLY MET'MAP TEAM :

Programming & Development : Alexandra Zaïnal
Concept & Development : Baudouin d'Aumeries
Co-Development & Prog : Marc-Olivier Méhu
Technical & hardware support : Manuel Goepfert

Contact : metmap@orbifly.com




SOURCES & CREDITS :

   NOAA